sensor_id;sensor_type;location;lat;lon;timestamp;temperature;humidity
16511;DHT22;8368;48.772;8.754;2022-10-16T00:00:38;13.40;99.90
16511;DHT22;8368;48.772;8.754;2022-10-16T00:03:04;13.40;99.90
16511;DHT22;8368;48.772;8.754;2022-10-16T00:05:30;13.40;99.90
16511;DHT22;8368;48.772;8.754;2022-10-16T00:07:56;13.50;99.90
16511;DHT22;8368;48.772;8.754;2022-10-16T00:10:21;13.50;99.90
16511;DHT22;8368;48.772;8.754;2022-10-16T00:12:47;13.50;99.90
16511;DHT22;8368;48.772;8.754;2022-10-16T00:15:13;13.50;99.90
16511;DHT22;8368;48.772;8.754;2022-10-16T00:17:39;13.60;99.90
16511;DHT22;8368;48.772;8.754;2022-10-16T00:20:05;13.60;99.90
16511;DHT22;8368;48.772;8.754;2022-10-16T00:22:31;13.60;99.90
16511;DHT22;8368;48.772;8.754;2022-10-16T00:24:56;13.70;99.90
16511;DHT22;8368;48.772;8.754;2022-10-16T00:27:22;13.70;99.90
16511;DHT22;8368;48.772;8.754;2022-10-16T00:29:51;13.70;99.90
16511;DHT22;8368;48.772;8.754;2022-10-16T00:32:18;13.70;99.90
16511;DHT22;8368;48.772;8.754;2022-10-16T00:34:44;13.80;99.90
16511;DHT22;8368;48.772;8.754;2022-10-16T00:37:11;13.80;99.90
16511;DHT22;8368;48.772;8.754;2022-10-16T00:39:36;13.80;99.90
16511;DHT22;8368;48.772;8.754;2022-10-16T00:42:02;13.80;99.90
16511;DHT22;8368;48.772;8.754;2022-10-16T00:44:48;13.90;99.90
16511;DHT22;8368;48.772;8.754;2022-10-16T00:47:42;13.90;99.90
16511;DHT22;8368;48.772;8.754;2022-10-16T00:50:33;13.90;99.90
16511;DHT22;8368;48.772;8.754;2022-10-16T00:53:01;14.00;99.90
16511;DHT22;8368;48.772;8.754;2022-10-16T00:55:27;13.90;99.90
16511;DHT22;8368;48.772;8.754;2022-10-16T00:57:56;13.90;99.90
16511;DHT22;8368;48.772;8.754;2022-10-16T01:00:25;14.00;99.90
16511;DHT22;8368;48.772;8.754;2022-10-16T01:02:54;14.00;99.90
16511;DHT22;8368;48.772;8.754;2022-10-16T01:05:22;14.10;99.90
16511;DHT22;8368;48.772;8.754;2022-10-16T01:10:33;14.00;99.90
16511;DHT22;8368;48.772;8.754;2022-10-16T01:13:31;14.10;99.90
16511;DHT22;8368;48.772;8.754;2022-10-16T01:16:07;14.00;99.90
16511;DHT22;8368;48.772;8.754;2022-10-16T01:18:57;14.10;99.90
16511;DHT22;8368;48.772;8.754;2022-10-16T01:21:31;14.00;99.90
16511;DHT22;8368;48.772;8.754;2022-10-16T01:29:30;13.90;99.90
16511;DHT22;8368;48.772;8.754;2022-10-16T01:32:01;14.00;99.90
16511;DHT22;8368;48.772;8.754;2022-10-16T01:34:37;14.00;99.90
16511;DHT22;8368;48.772;8.754;2022-10-16T01:37:14;14.00;99.90
16511;DHT22;8368;48.772;8.754;2022-10-16T01:39:42;14.00;99.90
16511;DHT22;8368;48.772;8.754;2022-10-16T01:42:28;14.00;99.90
16511;DHT22;8368;48.772;8.754;2022-10-16T01:44:55;14.00;99.90
16511;DHT22;8368;48.772;8.754;2022-10-16T01:47:23;14.00;99.90
16511;DHT22;8368;48.772;8.754;2022-10-16T01:49:51;14.00;99.90
16511;DHT22;8368;48.772;8.754;2022-10-16T01:52:21;13.90;99.90
16511;DHT22;8368;48.772;8.754;2022-10-16T01:54:50;13.90;99.90
16511;DHT22;8368;48.772;8.754;2022-10-16T01:57:18;13.90;99.90
16511;DHT22;8368;48.772;8.754;2022-10-16T01:59:49;13.90;99.90
16511;DHT22;8368;48.772;8.754;2022-10-16T02:02:17;13.90;99.90
16511;DHT22;8368;48.772;8.754;2022-10-16T02:04:47;13.90;99.90
16511;DHT22;8368;48.772;8.754;2022-10-16T02:07:14;13.90;99.90
16511;DHT22;8368;48.772;8.754;2022-10-16T02:09:40;13.80;99.90
16511;DHT22;8368;48.772;8.754;2022-10-16T02:12:28;13.80;99.90
16511;DHT22;8368;48.772;8.754;2022-10-16T02:14:56;13.80;99.90
16511;DHT22;8368;48.772;8.754;2022-10-16T02:17:22;13.80;99.90
16511;DHT22;8368;48.772;8.754;2022-10-16T02:19:49;13.80;99.90
16511;DHT22;8368;48.772;8.754;2022-10-16T02:22:32;13.80;99.90
16511;DHT22;8368;48.772;8.754;2022-10-16T02:25:06;13.80;99.90
16511;DHT22;8368;48.772;8.754;2022-10-16T02:27:53;13.80;99.90
16511;DHT22;8368;48.772;8.754;2022-10-16T02:30:25;13.80;99.90
16511;DHT22;8368;48.772;8.754;2022-10-16T02:32:53;13.80;99.90
16511;DHT22;8368;48.772;8.754;2022-10-16T02:35:21;13.70;99.90
16511;DHT22;8368;48.772;8.754;2022-10-16T02:37:48;13.70;99.90
16511;DHT22;8368;48.772;8.754;2022-10-16T02:40:15;13.70;99.90
16511;DHT22;8368;48.772;8.754;2022-10-16T02:42:41;13.70;99.90
16511;DHT22;8368;48.772;8.754;2022-10-16T02:45:09;13.70;99.90
16511;DHT22;8368;48.772;8.754;2022-10-16T02:47:35;13.60;99.90
16511;DHT22;8368;48.772;8.754;2022-10-16T02:50:00;13.60;99.90
16511;DHT22;8368;48.772;8.754;2022-10-16T02:52:26;13.60;99.90
16511;DHT22;8368;48.772;8.754;2022-10-16T02:54:52;13.60;99.90
16511;DHT22;8368;48.772;8.754;2022-10-16T02:57:17;13.60;99.90
16511;DHT22;8368;48.772;8.754;2022-10-16T02:59:44;13.60;99.90
16511;DHT22;8368;48.772;8.754;2022-10-16T03:02:09;13.60;99.90
16511;DHT22;8368;48.772;8.754;2022-10-16T03:04:35;13.60;99.90
16511;DHT22;8368;48.772;8.754;2022-10-16T03:07:01;13.60;99.90
16511;DHT22;8368;48.772;8.754;2022-10-16T03:09:27;13.50;99.90
16511;DHT22;8368;48.772;8.754;2022-10-16T03:11:52;13.50;99.90
16511;DHT22;8368;48.772;8.754;2022-10-16T03:14:18;13.50;99.90
16511;DHT22;8368;48.772;8.754;2022-10-16T03:16:43;13.50;99.90
16511;DHT22;8368;48.772;8.754;2022-10-16T03:19:09;13.40;99.90
16511;DHT22;8368;48.772;8.754;2022-10-16T03:21:34;13.40;99.90
16511;DHT22;8368;48.772;8.754;2022-10-16T03:24:00;13.40;99.90
16511;DHT22;8368;48.772;8.754;2022-10-16T03:26:25;13.40;99.90
16511;DHT22;8368;48.772;8.754;2022-10-16T03:28:51;13.40;99.90
16511;DHT22;8368;48.772;8.754;2022-10-16T03:31:16;13.40;99.90
16511;DHT22;8368;48.772;8.754;2022-10-16T03:33:42;13.40;99.90
16511;DHT22;8368;48.772;8.754;2022-10-16T03:36:07;13.40;99.90
16511;DHT22;8368;48.772;8.754;2022-10-16T03:38:33;13.40;99.90
16511;DHT22;8368;48.772;8.754;2022-10-16T03:40:58;13.40;99.90
16511;DHT22;8368;48.772;8.754;2022-10-16T03:43:24;13.40;99.90
16511;DHT22;8368;48.772;8.754;2022-10-16T03:45:51;13.40;99.90
16511;DHT22;8368;48.772;8.754;2022-10-16T03:48:17;13.40;99.90
16511;DHT22;8368;48.772;8.754;2022-10-16T03:50:43;13.40;99.90
16511;DHT22;8368;48.772;8.754;2022-10-16T03:53:08;13.40;99.90
16511;DHT22;8368;48.772;8.754;2022-10-16T03:55:35;13.40;99.90
16511;DHT22;8368;48.772;8.754;2022-10-16T03:58:00;13.40;99.90
16511;DHT22;8368;48.772;8.754;2022-10-16T04:00:26;13.30;99.90
16511;DHT22;8368;48.772;8.754;2022-10-16T04:02:52;13.30;99.90
16511;DHT22;8368;48.772;8.754;2022-10-16T04:05:18;13.30;99.90
16511;DHT22;8368;48.772;8.754;2022-10-16T04:07:43;13.30;99.90
16511;DHT22;8368;48.772;8.754;2022-10-16T04:10:09;13.30;99.90
16511;DHT22;8368;48.772;8.754;2022-10-16T04:12:35;13.30;99.90
16511;DHT22;8368;48.772;8.754;2022-10-16T04:15:00;13.40;99.90
16511;DHT22;8368;48.772;8.754;2022-10-16T04:17:26;13.40;99.90
16511;DHT22;8368;48.772;8.754;2022-10-16T04:19:51;13.40;99.90
16511;DHT22;8368;48.772;8.754;2022-10-16T04:22:17;13.40;99.90
16511;DHT22;8368;48.772;8.754;2022-10-16T04:24:43;13.40;99.90
16511;DHT22;8368;48.772;8.754;2022-10-16T04:27:08;13.40;99.90
16511;DHT22;8368;48.772;8.754;2022-10-16T04:29:34;13.40;99.90
16511;DHT22;8368;48.772;8.754;2022-10-16T04:31:59;13.40;99.90
16511;DHT22;8368;48.772;8.754;2022-10-16T04:34:25;13.40;99.90
16511;DHT22;8368;48.772;8.754;2022-10-16T04:36:50;13.40;99.90
16511;DHT22;8368;48.772;8.754;2022-10-16T04:39:16;13.40;99.90
16511;DHT22;8368;48.772;8.754;2022-10-16T04:41:42;13.40;99.90
16511;DHT22;8368;48.772;8.754;2022-10-16T04:44:07;13.40;99.90
16511;DHT22;8368;48.772;8.754;2022-10-16T04:46:33;13.40;99.90
16511;DHT22;8368;48.772;8.754;2022-10-16T04:48:59;13.40;99.90
16511;DHT22;8368;48.772;8.754;2022-10-16T04:51:25;13.40;99.90
16511;DHT22;8368;48.772;8.754;2022-10-16T04:53:51;13.40;99.90
16511;DHT22;8368;48.772;8.754;2022-10-16T04:56:17;13.30;99.90
16511;DHT22;8368;48.772;8.754;2022-10-16T04:58:42;13.30;99.90
16511;DHT22;8368;48.772;8.754;2022-10-16T05:01:08;13.30;99.90
16511;DHT22;8368;48.772;8.754;2022-10-16T05:03:33;13.30;99.90
16511;DHT22;8368;48.772;8.754;2022-10-16T05:05:59;13.30;99.90
16511;DHT22;8368;48.772;8.754;2022-10-16T05:08:24;13.30;99.90
16511;DHT22;8368;48.772;8.754;2022-10-16T05:10:50;13.20;99.90
16511;DHT22;8368;48.772;8.754;2022-10-16T05:13:16;13.20;99.90
16511;DHT22;8368;48.772;8.754;2022-10-16T05:15:41;13.20;99.90
16511;DHT22;8368;48.772;8.754;2022-10-16T05:18:08;13.20;99.90
16511;DHT22;8368;48.772;8.754;2022-10-16T05:20:34;13.20;99.90
16511;DHT22;8368;48.772;8.754;2022-10-16T05:22:59;13.10;99.90
16511;DHT22;8368;48.772;8.754;2022-10-16T05:25:25;13.10;99.90
16511;DHT22;8368;48.772;8.754;2022-10-16T05:27:51;13.10;99.90
16511;DHT22;8368;48.772;8.754;2022-10-16T05:30:17;13.10;99.90
16511;DHT22;8368;48.772;8.754;2022-10-16T05:32:50;13.10;99.90
16511;DHT22;8368;48.772;8.754;2022-10-16T05:35:17;13.00;99.90
16511;DHT22;8368;48.772;8.754;2022-10-16T05:37:42;13.00;99.90
16511;DHT22;8368;48.772;8.754;2022-10-16T05:40:09;13.00;99.90
16511;DHT22;8368;48.772;8.754;2022-10-16T05:42:35;13.00;99.90
16511;DHT22;8368;48.772;8.754;2022-10-16T05:45:00;13.00;99.90
16511;DHT22;8368;48.772;8.754;2022-10-16T05:47:26;13.00;99.90
16511;DHT22;8368;48.772;8.754;2022-10-16T05:49:52;13.00;99.90
16511;DHT22;8368;48.772;8.754;2022-10-16T05:52:18;13.00;99.90
16511;DHT22;8368;48.772;8.754;2022-10-16T05:54:44;13.00;99.90
16511;DHT22;8368;48.772;8.754;2022-10-16T05:57:09;13.00;99.90
16511;DHT22;8368;48.772;8.754;2022-10-16T05:59:35;13.00;99.90
16511;DHT22;8368;48.772;8.754;2022-10-16T06:02:00;13.00;99.90
16511;DHT22;8368;48.772;8.754;2022-10-16T06:04:26;13.00;99.90
16511;DHT22;8368;48.772;8.754;2022-10-16T06:06:51;13.00;99.90
16511;DHT22;8368;48.772;8.754;2022-10-16T06:09:17;13.10;99.90
16511;DHT22;8368;48.772;8.754;2022-10-16T06:11:43;13.10;99.90
16511;DHT22;8368;48.772;8.754;2022-10-16T06:14:08;13.10;99.90
16511;DHT22;8368;48.772;8.754;2022-10-16T06:16:35;13.10;99.90
16511;DHT22;8368;48.772;8.754;2022-10-16T06:19:02;13.10;99.90
16511;DHT22;8368;48.772;8.754;2022-10-16T06:21:29;13.10;99.90
16511;DHT22;8368;48.772;8.754;2022-10-16T06:23:56;13.10;99.90
16511;DHT22;8368;48.772;8.754;2022-10-16T06:26:24;13.20;99.90
16511;DHT22;8368;48.772;8.754;2022-10-16T06:28:49;13.20;99.90
16511;DHT22;8368;48.772;8.754;2022-10-16T06:31:16;13.20;99.90
16511;DHT22;8368;48.772;8.754;2022-10-16T06:33:42;13.30;99.90
16511;DHT22;8368;48.772;8.754;2022-10-16T06:36:13;13.30;99.90
16511;DHT22;8368;48.772;8.754;2022-10-16T06:38:40;13.30;99.90
16511;DHT22;8368;48.772;8.754;2022-10-16T06:41:07;13.40;99.90
16511;DHT22;8368;48.772;8.754;2022-10-16T06:43:33;13.40;99.90
16511;DHT22;8368;48.772;8.754;2022-10-16T06:46:03;13.50;99.90
16511;DHT22;8368;48.772;8.754;2022-10-16T06:48:29;13.50;99.90
16511;DHT22;8368;48.772;8.754;2022-10-16T06:50:59;13.60;99.90
16511;DHT22;8368;48.772;8.754;2022-10-16T06:53:26;13.60;99.90
16511;DHT22;8368;48.772;8.754;2022-10-16T06:55:52;13.60;99.90
16511;DHT22;8368;48.772;8.754;2022-10-16T06:58:18;13.60;99.90
16511;DHT22;8368;48.772;8.754;2022-10-16T07:00:44;13.70;99.90
16511;DHT22;8368;48.772;8.754;2022-10-16T07:03:10;13.70;99.90
16511;DHT22;8368;48.772;8.754;2022-10-16T07:05:42;13.70;99.90
16511;DHT22;8368;48.772;8.754;2022-10-16T07:08:08;13.70;99.90
16511;DHT22;8368;48.772;8.754;2022-10-16T07:10:34;13.80;99.90
16511;DHT22;8368;48.772;8.754;2022-10-16T07:13:00;13.80;99.90
16511;DHT22;8368;48.772;8.754;2022-10-16T07:15:26;13.80;99.90
16511;DHT22;8368;48.772;8.754;2022-10-16T07:17:52;13.80;99.90
16511;DHT22;8368;48.772;8.754;2022-10-16T07:20:18;13.90;99.90
16511;DHT22;8368;48.772;8.754;2022-10-16T07:22:44;13.90;99.90
16511;DHT22;8368;48.772;8.754;2022-10-16T07:25:10;14.00;99.90
16511;DHT22;8368;48.772;8.754;2022-10-16T07:27:37;14.10;99.90
16511;DHT22;8368;48.772;8.754;2022-10-16T07:30:04;14.20;99.90
16511;DHT22;8368;48.772;8.754;2022-10-16T07:32:30;14.30;99.90
16511;DHT22;8368;48.772;8.754;2022-10-16T07:34:56;14.40;99.90
16511;DHT22;8368;48.772;8.754;2022-10-16T07:37:21;14.50;99.90
16511;DHT22;8368;48.772;8.754;2022-10-16T07:39:47;14.70;99.90
16511;DHT22;8368;48.772;8.754;2022-10-16T07:42:13;14.80;99.90
16511;DHT22;8368;48.772;8.754;2022-10-16T07:44:38;14.90;99.90
16511;DHT22;8368;48.772;8.754;2022-10-16T07:47:05;15.00;99.90
16511;DHT22;8368;48.772;8.754;2022-10-16T07:49:30;15.10;99.90
16511;DHT22;8368;48.772;8.754;2022-10-16T07:51:56;15.30;99.90
16511;DHT22;8368;48.772;8.754;2022-10-16T07:54:22;15.40;99.90
16511;DHT22;8368;48.772;8.754;2022-10-16T07:56:47;15.60;99.90
16511;DHT22;8368;48.772;8.754;2022-10-16T07:59:13;15.60;99.90
16511;DHT22;8368;48.772;8.754;2022-10-16T08:01:38;15.60;99.90
16511;DHT22;8368;48.772;8.754;2022-10-16T08:04:05;15.80;99.90
16511;DHT22;8368;48.772;8.754;2022-10-16T08:06:35;15.70;99.90
16511;DHT22;8368;48.772;8.754;2022-10-16T08:09:01;15.90;99.90
16511;DHT22;8368;48.772;8.754;2022-10-16T08:11:27;15.90;99.90
16511;DHT22;8368;48.772;8.754;2022-10-16T08:13:53;16.00;99.90
16511;DHT22;8368;48.772;8.754;2022-10-16T08:16:18;16.00;99.90
16511;DHT22;8368;48.772;8.754;2022-10-16T08:18:44;16.00;99.90
16511;DHT22;8368;48.772;8.754;2022-10-16T08:21:18;15.90;99.90
16511;DHT22;8368;48.772;8.754;2022-10-16T08:23:44;15.90;99.90
16511;DHT22;8368;48.772;8.754;2022-10-16T08:26:10;15.90;99.90
16511;DHT22;8368;48.772;8.754;2022-10-16T08:28:36;16.00;99.90
16511;DHT22;8368;48.772;8.754;2022-10-16T08:33:35;16.20;99.90
16511;DHT22;8368;48.772;8.754;2022-10-16T08:36:02;16.20;99.90
16511;DHT22;8368;48.772;8.754;2022-10-16T08:38:28;16.20;99.90
16511;DHT22;8368;48.772;8.754;2022-10-16T08:43:52;16.30;99.90
16511;DHT22;8368;48.772;8.754;2022-10-16T08:46:59;16.30;99.90
16511;DHT22;8368;48.772;8.754;2022-10-16T08:49:27;16.30;99.90
16511;DHT22;8368;48.772;8.754;2022-10-16T08:51:53;16.40;99.90
16511;DHT22;8368;48.772;8.754;2022-10-16T08:54:35;16.40;99.90
16511;DHT22;8368;48.772;8.754;2022-10-16T08:57:15;16.40;99.90
16511;DHT22;8368;48.772;8.754;2022-10-16T08:59:42;16.30;99.90
16511;DHT22;8368;48.772;8.754;2022-10-16T09:13:00;16.40;99.90
16511;DHT22;8368;48.772;8.754;2022-10-16T09:21:09;16.30;99.90
16511;DHT22;8368;48.772;8.754;2022-10-16T09:23:37;16.30;99.90
16511;DHT22;8368;48.772;8.754;2022-10-16T09:26:04;16.40;99.90
16511;DHT22;8368;48.772;8.754;2022-10-16T09:28:30;16.50;99.90
16511;DHT22;8368;48.772;8.754;2022-10-16T09:30:56;16.60;99.90
16511;DHT22;8368;48.772;8.754;2022-10-16T09:33:27;16.70;99.90
16511;DHT22;8368;48.772;8.754;2022-10-16T09:35:56;16.80;99.90
16511;DHT22;8368;48.772;8.754;2022-10-16T09:38:29;16.90;99.90
16511;DHT22;8368;48.772;8.754;2022-10-16T09:40:56;17.00;99.90
16511;DHT22;8368;48.772;8.754;2022-10-16T09:46:02;17.20;99.90
16511;DHT22;8368;48.772;8.754;2022-10-16T09:48:36;17.20;99.90
16511;DHT22;8368;48.772;8.754;2022-10-16T09:51:05;17.30;99.90
16511;DHT22;8368;48.772;8.754;2022-10-16T09:53:45;17.50;99.90
16511;DHT22;8368;48.772;8.754;2022-10-16T09:56:21;17.60;99.90
16511;DHT22;8368;48.772;8.754;2022-10-16T09:58:51;17.80;99.90
16511;DHT22;8368;48.772;8.754;2022-10-16T10:01:17;18.10;99.90
16511;DHT22;8368;48.772;8.754;2022-10-16T10:03:44;18.10;99.90
16511;DHT22;8368;48.772;8.754;2022-10-16T10:06:25;18.20;99.90
16511;DHT22;8368;48.772;8.754;2022-10-16T10:09:06;18.40;99.90
16511;DHT22;8368;48.772;8.754;2022-10-16T10:11:52;18.30;99.90
16511;DHT22;8368;48.772;8.754;2022-10-16T10:14:30;18.40;99.90
16511;DHT22;8368;48.772;8.754;2022-10-16T10:19:46;18.40;99.90
16511;DHT22;8368;48.772;8.754;2022-10-16T10:22:27;18.40;99.90
16511;DHT22;8368;48.772;8.754;2022-10-16T10:25:04;18.40;99.90
16511;DHT22;8368;48.772;8.754;2022-10-16T10:41:53;18.60;99.90
16511;DHT22;8368;48.772;8.754;2022-10-16T10:47:06;18.80;99.90
16511;DHT22;8368;48.772;8.754;2022-10-16T10:49:53;18.70;99.90
16511;DHT22;8368;48.772;8.754;2022-10-16T10:55:24;18.60;99.90
16511;DHT22;8368;48.772;8.754;2022-10-16T10:58:06;18.40;99.90
16511;DHT22;8368;48.772;8.754;2022-10-16T11:00:42;18.40;99.90
16511;DHT22;8368;48.772;8.754;2022-10-16T11:06:32;18.70;99.90
16511;DHT22;8368;48.772;8.754;2022-10-16T11:11:56;19.00;99.90
16511;DHT22;8368;48.772;8.754;2022-10-16T11:14:34;19.30;99.90
16511;DHT22;8368;48.772;8.754;2022-10-16T11:20:23;19.50;99.90
16511;DHT22;8368;48.772;8.754;2022-10-16T11:23:00;19.70;99.90
16511;DHT22;8368;48.772;8.754;2022-10-16T11:25:30;19.70;99.90
16511;DHT22;8368;48.772;8.754;2022-10-16T11:28:16;19.70;99.90
16511;DHT22;8368;48.772;8.754;2022-10-16T11:33:47;20.00;99.90
16511;DHT22;8368;48.772;8.754;2022-10-16T11:36:21;20.10;99.90
16511;DHT22;8368;48.772;8.754;2022-10-16T11:46:27;20.20;99.90
16511;DHT22;8368;48.772;8.754;2022-10-16T11:49:00;20.10;99.90
16511;DHT22;8368;48.772;8.754;2022-10-16T11:54:35;20.00;99.90
16511;DHT22;8368;48.772;8.754;2022-10-16T11:57:11;20.00;99.90
16511;DHT22;8368;48.772;8.754;2022-10-16T12:05:30;20.10;99.90
16511;DHT22;8368;48.772;8.754;2022-10-16T12:08:16;20.10;99.90
16511;DHT22;8368;48.772;8.754;2022-10-16T12:10:45;20.20;99.90
16511;DHT22;8368;48.772;8.754;2022-10-16T12:13:31;20.30;99.90
16511;DHT22;8368;48.772;8.754;2022-10-16T12:18:47;20.70;99.90
16511;DHT22;8368;48.772;8.754;2022-10-16T12:21:15;20.70;99.90
16511;DHT22;8368;48.772;8.754;2022-10-16T12:23:55;20.80;99.90
16511;DHT22;8368;48.772;8.754;2022-10-16T12:26:30;20.80;99.90
16511;DHT22;8368;48.772;8.754;2022-10-16T12:29:09;20.90;99.90
16511;DHT22;8368;48.772;8.754;2022-10-16T12:31:48;20.80;99.90
16511;DHT22;8368;48.772;8.754;2022-10-16T12:34:43;20.80;99.90
16511;DHT22;8368;48.772;8.754;2022-10-16T12:37:33;20.80;99.90
16511;DHT22;8368;48.772;8.754;2022-10-16T12:40:15;20.80;99.90
16511;DHT22;8368;48.772;8.754;2022-10-16T12:42:42;20.70;99.90
16511;DHT22;8368;48.772;8.754;2022-10-16T12:45:30;20.70;99.90
16511;DHT22;8368;48.772;8.754;2022-10-16T12:48:04;20.70;99.90
16511;DHT22;8368;48.772;8.754;2022-10-16T12:50:34;20.70;99.90
16511;DHT22;8368;48.772;8.754;2022-10-16T12:53:02;20.70;99.90
16511;DHT22;8368;48.772;8.754;2022-10-16T12:55:38;20.70;99.90
16511;DHT22;8368;48.772;8.754;2022-10-16T12:58:22;20.80;99.90
16511;DHT22;8368;48.772;8.754;2022-10-16T13:01:07;20.80;99.90
16511;DHT22;8368;48.772;8.754;2022-10-16T13:03:49;20.70;99.90
16511;DHT22;8368;48.772;8.754;2022-10-16T13:11:55;20.70;99.90
16511;DHT22;8368;48.772;8.754;2022-10-16T13:20:16;20.60;99.90
16511;DHT22;8368;48.772;8.754;2022-10-16T13:23:09;20.60;99.90
16511;DHT22;8368;48.772;8.754;2022-10-16T13:25:48;20.60;99.90
16511;DHT22;8368;48.772;8.754;2022-10-16T13:28:22;20.80;99.90
16511;DHT22;8368;48.772;8.754;2022-10-16T13:30:52;21.00;99.90
16511;DHT22;8368;48.772;8.754;2022-10-16T13:33:33;20.90;99.90
16511;DHT22;8368;48.772;8.754;2022-10-16T13:36:00;20.80;99.90
16511;DHT22;8368;48.772;8.754;2022-10-16T13:38:29;20.70;99.90
16511;DHT22;8368;48.772;8.754;2022-10-16T13:41:15;20.60;99.90
16511;DHT22;8368;48.772;8.754;2022-10-16T13:48:39;20.50;99.90
16511;DHT22;8368;48.772;8.754;2022-10-16T13:51:17;20.50;99.90
16511;DHT22;8368;48.772;8.754;2022-10-16T13:53:44;20.50;99.90
16511;DHT22;8368;48.772;8.754;2022-10-16T13:56:16;20.30;99.90
16511;DHT22;8368;48.772;8.754;2022-10-16T13:58:42;20.30;99.90
16511;DHT22;8368;48.772;8.754;2022-10-16T14:01:24;20.20;99.90
16511;DHT22;8368;48.772;8.754;2022-10-16T14:03:51;20.10;99.90
16511;DHT22;8368;48.772;8.754;2022-10-16T14:06:21;20.10;99.90
16511;DHT22;8368;48.772;8.754;2022-10-16T14:09:07;20.00;99.90
16511;DHT22;8368;48.772;8.754;2022-10-16T14:11:42;20.00;99.90
16511;DHT22;8368;48.772;8.754;2022-10-16T14:14:11;19.90;99.90
16511;DHT22;8368;48.772;8.754;2022-10-16T14:16:40;19.90;99.90
16511;DHT22;8368;48.772;8.754;2022-10-16T14:19:18;19.80;99.90
16511;DHT22;8368;48.772;8.754;2022-10-16T14:21:44;19.80;99.90
16511;DHT22;8368;48.772;8.754;2022-10-16T14:24:22;19.90;99.90
16511;DHT22;8368;48.772;8.754;2022-10-16T14:26:50;20.00;99.90
16511;DHT22;8368;48.772;8.754;2022-10-16T14:29:19;20.00;99.90
16511;DHT22;8368;48.772;8.754;2022-10-16T14:32:05;20.00;99.90
16511;DHT22;8368;48.772;8.754;2022-10-16T14:34:36;20.00;99.90
16511;DHT22;8368;48.772;8.754;2022-10-16T14:37:25;20.10;99.90
16511;DHT22;8368;48.772;8.754;2022-10-16T14:39:52;20.10;99.90
16511;DHT22;8368;48.772;8.754;2022-10-16T14:42:20;20.10;99.90
16511;DHT22;8368;48.772;8.754;2022-10-16T14:44:48;20.10;99.90
16511;DHT22;8368;48.772;8.754;2022-10-16T14:47:19;20.00;99.90
16511;DHT22;8368;48.772;8.754;2022-10-16T14:49:47;19.80;99.90
16511;DHT22;8368;48.772;8.754;2022-10-16T14:52:13;19.60;99.90
16511;DHT22;8368;48.772;8.754;2022-10-16T14:54:40;19.50;99.90
16511;DHT22;8368;48.772;8.754;2022-10-16T14:57:12;19.50;99.90
16511;DHT22;8368;48.772;8.754;2022-10-16T14:59:41;19.30;99.90
16511;DHT22;8368;48.772;8.754;2022-10-16T15:02:30;19.30;99.90
16511;DHT22;8368;48.772;8.754;2022-10-16T15:04:56;19.20;99.90
16511;DHT22;8368;48.772;8.754;2022-10-16T15:07:22;19.20;99.90
16511;DHT22;8368;48.772;8.754;2022-10-16T15:09:48;19.20;99.90
16511;DHT22;8368;48.772;8.754;2022-10-16T15:12:14;19.20;99.90
16511;DHT22;8368;48.772;8.754;2022-10-16T15:14:39;19.20;99.90
16511;DHT22;8368;48.772;8.754;2022-10-16T15:17:05;19.20;99.90
16511;DHT22;8368;48.772;8.754;2022-10-16T15:19:31;19.20;99.90
16511;DHT22;8368;48.772;8.754;2022-10-16T15:21:56;19.10;99.90
16511;DHT22;8368;48.772;8.754;2022-10-16T15:24:22;19.10;99.90
16511;DHT22;8368;48.772;8.754;2022-10-16T15:26:48;19.00;99.90
16511;DHT22;8368;48.772;8.754;2022-10-16T15:29:15;18.80;99.90
16511;DHT22;8368;48.772;8.754;2022-10-16T15:31:41;18.70;99.90
16511;DHT22;8368;48.772;8.754;2022-10-16T15:34:10;18.60;99.90
16511;DHT22;8368;48.772;8.754;2022-10-16T15:36:37;18.50;99.90
16511;DHT22;8368;48.772;8.754;2022-10-16T15:39:21;18.30;99.90
16511;DHT22;8368;48.772;8.754;2022-10-16T15:41:47;18.20;99.90
16511;DHT22;8368;48.772;8.754;2022-10-16T15:44:16;18.10;99.90
16511;DHT22;8368;48.772;8.754;2022-10-16T15:46:42;18.00;99.90
16511;DHT22;8368;48.772;8.754;2022-10-16T15:49:09;17.90;99.90
16511;DHT22;8368;48.772;8.754;2022-10-16T15:51:38;17.80;99.90
16511;DHT22;8368;48.772;8.754;2022-10-16T15:54:04;17.70;99.90
16511;DHT22;8368;48.772;8.754;2022-10-16T15:56:30;17.60;99.90
16511;DHT22;8368;48.772;8.754;2022-10-16T15:58:59;17.50;99.90
16511;DHT22;8368;48.772;8.754;2022-10-16T16:01:25;17.30;99.90
16511;DHT22;8368;48.772;8.754;2022-10-16T16:03:55;17.20;99.90
16511;DHT22;8368;48.772;8.754;2022-10-16T16:06:21;17.10;99.90
16511;DHT22;8368;48.772;8.754;2022-10-16T16:08:47;17.00;99.90
16511;DHT22;8368;48.772;8.754;2022-10-16T16:11:16;16.90;99.90
16511;DHT22;8368;48.772;8.754;2022-10-16T16:13:42;16.80;99.90
16511;DHT22;8368;48.772;8.754;2022-10-16T16:16:10;16.70;99.90
16511;DHT22;8368;48.772;8.754;2022-10-16T16:18:37;16.60;99.90
16511;DHT22;8368;48.772;8.754;2022-10-16T16:21:02;16.60;99.90
16511;DHT22;8368;48.772;8.754;2022-10-16T16:23:28;16.50;99.90
16511;DHT22;8368;48.772;8.754;2022-10-16T16:26:22;16.50;99.90
16511;DHT22;8368;48.772;8.754;2022-10-16T16:28:51;16.40;99.90
16511;DHT22;8368;48.772;8.754;2022-10-16T16:31:17;16.40;99.90
16511;DHT22;8368;48.772;8.754;2022-10-16T16:33:42;16.30;99.90
16511;DHT22;8368;48.772;8.754;2022-10-16T16:36:08;16.20;99.90
16511;DHT22;8368;48.772;8.754;2022-10-16T16:38:35;16.10;99.90
16511;DHT22;8368;48.772;8.754;2022-10-16T16:41:14;16.00;99.90
16511;DHT22;8368;48.772;8.754;2022-10-16T16:43:41;15.90;99.90
16511;DHT22;8368;48.772;8.754;2022-10-16T16:46:07;15.80;99.90
16511;DHT22;8368;48.772;8.754;2022-10-16T16:48:33;15.80;99.90
16511;DHT22;8368;48.772;8.754;2022-10-16T16:51:15;15.70;99.90
16511;DHT22;8368;48.772;8.754;2022-10-16T16:53:47;15.60;99.90
16511;DHT22;8368;48.772;8.754;2022-10-16T16:56:13;15.50;99.90
16511;DHT22;8368;48.772;8.754;2022-10-16T16:58:39;15.40;99.90
16511;DHT22;8368;48.772;8.754;2022-10-16T17:01:05;15.40;99.90
16511;DHT22;8368;48.772;8.754;2022-10-16T17:03:33;15.30;99.90
16511;DHT22;8368;48.772;8.754;2022-10-16T17:06:01;15.30;99.90
16511;DHT22;8368;48.772;8.754;2022-10-16T17:08:27;15.20;99.90
16511;DHT22;8368;48.772;8.754;2022-10-16T17:10:54;15.10;99.90
16511;DHT22;8368;48.772;8.754;2022-10-16T17:13:24;15.10;99.90
16511;DHT22;8368;48.772;8.754;2022-10-16T17:15:51;15.00;99.90
16511;DHT22;8368;48.772;8.754;2022-10-16T17:18:17;15.00;99.90
16511;DHT22;8368;48.772;8.754;2022-10-16T17:20:43;14.90;99.90
16511;DHT22;8368;48.772;8.754;2022-10-16T17:23:10;14.80;99.90
16511;DHT22;8368;48.772;8.754;2022-10-16T17:25:39;14.70;99.90
16511;DHT22;8368;48.772;8.754;2022-10-16T17:28:06;14.70;99.90
16511;DHT22;8368;48.772;8.754;2022-10-16T17:30:32;14.60;99.90
16511;DHT22;8368;48.772;8.754;2022-10-16T17:33:00;14.60;99.90
16511;DHT22;8368;48.772;8.754;2022-10-16T17:35:25;14.50;99.90
16511;DHT22;8368;48.772;8.754;2022-10-16T17:37:52;14.40;99.90
16511;DHT22;8368;48.772;8.754;2022-10-16T17:40:18;14.40;99.90
16511;DHT22;8368;48.772;8.754;2022-10-16T17:42:43;14.30;99.90